createdAt,value
2024-03-16T00:01:27.280Z,10.90
2024-03-16T00:03:01.000Z,10.90
2024-03-16T00:04:33.603Z,10.90
2024-03-16T00:06:06.690Z,10.90
2024-03-16T00:07:38.626Z,10.90
2024-03-16T00:09:12.086Z,10.90
2024-03-16T00:10:44.499Z,10.90
2024-03-16T00:12:18.084Z,10.90
2024-03-16T00:13:49.981Z,10.90
2024-03-16T00:15:22.964Z,10.90
2024-03-16T00:16:55.140Z,10.90
2024-03-16T00:18:28.122Z,10.90
2024-03-16T00:20:00.139Z,10.90
2024-03-16T00:21:33.160Z,10.90
2024-03-16T00:23:05.109Z,10.90
2024-03-16T00:24:38.015Z,10.90
2024-03-16T00:26:09.950Z,11.00
2024-03-16T00:27:42.887Z,10.90
2024-03-16T00:29:14.978Z,11.00
2024-03-16T00:30:48.140Z,11.00
2024-03-16T00:32:21.526Z,11.00
2024-03-16T00:33:55.011Z,11.00
2024-03-16T00:35:27.516Z,11.00
2024-03-16T00:37:05.366Z,11.00
2024-03-16T00:38:37.460Z,11.00
2024-03-16T00:40:10.964Z,11.00
2024-03-16T00:41:43.263Z,11.00
2024-03-16T00:43:19.436Z,11.00
2024-03-16T00:44:52.908Z,11.00
2024-03-16T00:46:24.921Z,11.00
2024-03-16T00:47:58.039Z,11.00
2024-03-16T00:49:30.018Z,11.00
2024-03-16T00:51:03.017Z,11.00
2024-03-16T00:52:34.960Z,11.00
2024-03-16T00:54:07.843Z,11.00
2024-03-16T00:55:40.013Z,11.00
2024-03-16T00:57:13.034Z,11.00
2024-03-16T00:58:44.942Z,11.00
2024-03-16T01:00:19.337Z,11.00
2024-03-16T01:01:53.255Z,11.00
2024-03-16T01:03:26.177Z,11.00
2024-03-16T01:04:58.111Z,11.00
2024-03-16T01:06:31.016Z,11.00
2024-03-16T01:08:04.174Z,11.00
2024-03-16T01:09:36.088Z,11.00
2024-03-16T01:11:10.613Z,11.00
2024-03-16T01:12:42.851Z,11.00
2024-03-16T01:14:15.780Z,11.00
2024-03-16T01:15:47.748Z,11.00
2024-03-16T01:17:22.020Z,11.00
2024-03-16T01:18:54.623Z,11.00
2024-03-16T01:20:29.272Z,11.00
2024-03-16T01:22:01.518Z,11.00
2024-03-16T01:23:34.796Z,11.00
2024-03-16T01:25:07.472Z,11.00
2024-03-16T01:26:40.393Z,11.00
2024-03-16T01:28:13.598Z,11.00
2024-03-16T01:29:47.583Z,11.00
2024-03-16T01:31:19.572Z,11.00
2024-03-16T01:32:52.480Z,11.00
2024-03-16T01:34:24.416Z,11.00
2024-03-16T01:35:57.311Z,11.00
2024-03-16T01:37:31.285Z,11.00
2024-03-16T01:39:04.459Z,11.00
2024-03-16T01:40:36.692Z,11.00
2024-03-16T01:42:09.640Z,11.00
2024-03-16T01:43:41.571Z,11.00
2024-03-16T01:45:14.529Z,11.00
2024-03-16T01:46:47.550Z,11.00
2024-03-16T01:48:20.419Z,11.00
2024-03-16T01:49:52.372Z,11.00
2024-03-16T01:51:25.392Z,11.10
2024-03-16T01:52:57.277Z,11.00
2024-03-16T01:54:31.884Z,11.00
2024-03-16T01:56:04.131Z,11.00
2024-03-16T01:57:38.574Z,11.10
2024-03-16T01:59:10.551Z,11.00
2024-03-16T02:00:48.687Z,11.00
2024-03-16T02:02:31.129Z,11.00
2024-03-16T02:04:04.697Z,11.00
2024-03-16T02:05:37.378Z,11.00
2024-03-16T02:07:11.365Z,11.00
2024-03-16T02:08:43.671Z,11.00
2024-03-16T02:10:16.764Z,11.00
2024-03-16T02:11:51.137Z,11.00
2024-03-16T02:13:24.038Z,10.90
2024-03-16T02:14:57.286Z,10.90
2024-03-16T02:16:30.164Z,10.80
2024-03-16T02:18:02.161Z,10.90
2024-03-16T02:19:35.090Z,10.90
2024-03-16T02:21:10.618Z,10.90
2024-03-16T02:22:42.668Z,10.80
2024-03-16T02:24:15.537Z,10.80
2024-03-16T02:25:48.160Z,10.80
2024-03-16T02:27:21.782Z,10.80
2024-03-16T02:28:53.937Z,10.70
2024-03-16T02:30:26.906Z,10.70
2024-03-16T02:31:58.837Z,10.70
2024-03-16T02:33:32.555Z,10.70
2024-03-16T02:35:04.931Z,10.60
2024-03-16T02:36:37.845Z,10.60
2024-03-16T02:38:11.188Z,10.60
2024-03-16T02:39:43.495Z,10.60
2024-03-16T02:41:16.366Z,10.60
2024-03-16T02:42:48.491Z,10.60
2024-03-16T02:44:21.380Z,10.60
2024-03-16T02:45:53.417Z,10.50
2024-03-16T02:47:26.380Z,10.60
2024-03-16T02:48:58.352Z,10.50
2024-03-16T02:50:31.237Z,10.50
2024-03-16T02:52:04.781Z,10.50
2024-03-16T02:53:37.736Z,10.50
2024-03-16T02:55:10.615Z,10.50
2024-03-16T02:56:43.611Z,10.50
2024-03-16T02:58:15.554Z,10.40
2024-03-16T02:59:48.447Z,10.40
2024-03-16T03:01:21.269Z,10.40
2024-03-16T03:02:54.357Z,10.40
2024-03-16T03:04:26.282Z,10.40
2024-03-16T03:05:59.167Z,10.40
2024-03-16T03:07:31.125Z,10.30
2024-03-16T03:09:08.092Z,10.30
2024-03-16T03:10:42.368Z,10.30
2024-03-16T03:12:15.595Z,10.30
2024-03-16T03:13:48.726Z,10.30
2024-03-16T03:15:22.921Z,10.30
2024-03-16T03:16:54.857Z,10.30
2024-03-16T03:18:28.253Z,10.20
2024-03-16T03:20:00.226Z,10.20
2024-03-16T03:21:33.160Z,10.20
2024-03-16T03:23:06.580Z,10.20
2024-03-16T03:24:39.700Z,10.20
2024-03-16T03:26:12.262Z,10.20
2024-03-16T03:27:45.164Z,10.20
2024-03-16T03:29:17.122Z,10.10
2024-03-16T03:30:50.531Z,10.10
2024-03-16T03:32:22.481Z,10.10
2024-03-16T03:33:55.448Z,10.10
2024-03-16T03:35:27.412Z,10.10
2024-03-16T03:37:00.441Z,10.10
2024-03-16T03:38:32.435Z,10.10
2024-03-16T03:40:06.080Z,10.10
2024-03-16T03:41:38.381Z,10.10
2024-03-16T03:43:18.486Z,10.10
2024-03-16T03:45:01.230Z,10.10
2024-03-16T03:46:50.935Z,10.10
2024-03-16T03:48:42.120Z,10.10
2024-03-16T03:50:15.088Z,10.10
2024-03-16T03:51:47.144Z,10.10
2024-03-16T03:53:20.150Z,10.00
2024-03-16T03:54:52.096Z,10.00
2024-03-16T03:56:25.032Z,10.00
2024-03-16T03:57:56.974Z,10.00
2024-03-16T03:59:29.877Z,10.10
2024-03-16T04:01:02.042Z,10.10
2024-03-16T04:02:35.029Z,10.10
2024-03-16T04:04:07.069Z,10.10
2024-03-16T04:05:39.988Z,10.00
2024-03-16T04:07:11.948Z,10.10
2024-03-16T04:08:44.836Z,10.10
2024-03-16T04:10:16.777Z,10.10
2024-03-16T04:11:49.759Z,10.10
2024-03-16T04:13:21.734Z,10.10
2024-03-16T04:14:54.872Z,10.10
2024-03-16T04:16:26.788Z,10.10
2024-03-16T04:17:59.836Z,10.10
2024-03-16T04:19:31.872Z,10.10
2024-03-16T04:21:08.027Z,10.10
2024-03-16T04:22:39.958Z,10.20
2024-03-16T04:24:12.914Z,10.20
2024-03-16T04:25:44.819Z,10.20
2024-03-16T04:27:17.703Z,10.20
2024-03-16T04:28:49.791Z,10.20
2024-03-16T04:30:22.705Z,10.20
2024-03-16T04:31:54.636Z,10.20
2024-03-16T04:33:28.402Z,10.20
2024-03-16T04:35:00.467Z,10.20
2024-03-16T04:36:33.400Z,10.30
2024-03-16T04:38:06.195Z,10.20
2024-03-16T04:39:44.602Z,10.20
2024-03-16T04:41:16.803Z,10.20
2024-03-16T04:42:49.724Z,10.20
2024-03-16T04:44:21.640Z,10.20
2024-03-16T04:45:54.637Z,10.20
2024-03-16T04:47:26.680Z,10.20
2024-03-16T04:48:59.615Z,10.20
2024-03-16T04:50:31.561Z,10.20
2024-03-16T04:52:04.676Z,10.20
2024-03-16T04:53:36.601Z,10.20
2024-03-16T04:55:09.673Z,10.20
2024-03-16T04:56:41.712Z,10.20
2024-03-16T04:58:14.629Z,10.20
2024-03-16T04:59:46.676Z,10.20
2024-03-16T05:01:19.619Z,10.20
2024-03-16T05:02:51.557Z,10.20
2024-03-16T05:04:24.470Z,10.20
2024-03-16T05:05:57.458Z,10.20
2024-03-16T05:07:32.066Z,10.20
2024-03-16T05:09:06.518Z,10.20
2024-03-16T05:10:39.396Z,10.20
2024-03-16T05:12:11.306Z,10.20
2024-03-16T05:13:44.460Z,10.20
2024-03-16T05:15:16.453Z,10.20
2024-03-16T05:16:49.402Z,10.20
2024-03-16T05:18:22.333Z,10.20
2024-03-16T05:19:54.288Z,10.20
2024-03-16T05:21:27.401Z,10.20
2024-03-16T05:22:59.337Z,10.20
2024-03-16T05:24:32.253Z,10.10
2024-03-16T05:26:04.394Z,10.10
2024-03-16T05:27:37.414Z,10.10
2024-03-16T05:29:10.518Z,10.10
2024-03-16T05:30:43.483Z,10.10
2024-03-16T05:32:15.615Z,10.10
2024-03-16T05:33:50.115Z,10.10
2024-03-16T05:35:27.338Z,10.10
2024-03-16T05:37:00.248Z,10.00
2024-03-16T05:38:33.196Z,10.00
2024-03-16T05:40:06.312Z,10.00
2024-03-16T05:41:38.342Z,10.00
2024-03-16T05:43:11.376Z,10.00
2024-03-16T05:44:43.596Z,10.10
2024-03-16T05:46:16.891Z,10.00
2024-03-16T05:47:48.899Z,10.10
2024-03-16T05:49:23.834Z,10.10
2024-03-16T05:50:58.054Z,10.10
2024-03-16T05:52:29.983Z,10.10
2024-03-16T05:54:05.218Z,10.10
2024-03-16T05:55:37.172Z,10.10
2024-03-16T05:57:10.087Z,10.10
2024-03-16T05:58:42.021Z,10.10
2024-03-16T06:00:15.669Z,10.10
2024-03-16T06:01:47.904Z,10.10
2024-03-16T06:03:20.799Z,10.10
2024-03-16T06:04:53.911Z,10.10
2024-03-16T06:06:25.848Z,10.10
2024-03-16T06:07:58.718Z,10.10
2024-03-16T06:09:30.767Z,10.20
2024-03-16T06:11:03.728Z,10.20
2024-03-16T06:12:35.692Z,10.20
2024-03-16T06:14:10.477Z,10.20
2024-03-16T06:15:43.449Z,10.20
2024-03-16T06:17:15.440Z,10.20
2024-03-16T06:18:48.856Z,10.20
2024-03-16T06:20:25.026Z,10.20
2024-03-16T06:21:57.178Z,10.30
2024-03-16T06:23:30.585Z,10.20
2024-03-16T06:25:03.416Z,10.30
2024-03-16T06:26:37.741Z,10.30
2024-03-16T06:28:10.666Z,10.30
2024-03-16T06:29:48.847Z,10.30
2024-03-16T06:31:31.965Z,10.30
2024-03-16T06:33:10.416Z,10.30
2024-03-16T06:34:43.361Z,10.40
2024-03-16T06:36:16.724Z,10.40
2024-03-16T06:37:48.728Z,10.40
2024-03-16T06:39:22.627Z,10.40
2024-03-16T06:40:54.665Z,10.40
2024-03-16T06:42:29.293Z,10.40
2024-03-16T06:44:01.184Z,10.50
2024-03-16T06:45:34.114Z,10.40
2024-03-16T06:47:06.537Z,10.50
2024-03-16T06:48:39.459Z,10.50
2024-03-16T06:50:12.405Z,10.50
2024-03-16T06:51:45.351Z,10.50
2024-03-16T06:53:17.266Z,10.50
2024-03-16T06:54:50.171Z,10.60
2024-03-16T06:56:22.187Z,10.60
2024-03-16T06:57:55.166Z,10.60
2024-03-16T06:59:27.874Z,10.60
2024-03-16T07:01:00.850Z,10.60
2024-03-16T07:02:32.968Z,10.70
2024-03-16T07:04:06.171Z,10.70
2024-03-16T07:05:38.388Z,10.70
2024-03-16T07:07:11.363Z,10.80
2024-03-16T07:08:43.318Z,10.80
2024-03-16T07:10:17.201Z,10.80
2024-03-16T07:11:49.587Z,10.80
2024-03-16T07:13:22.694Z,10.90
2024-03-16T07:14:54.626Z,10.90
2024-03-16T07:16:27.551Z,10.90
2024-03-16T07:17:59.552Z,11.00
2024-03-16T07:19:32.509Z,11.00
2024-03-16T07:21:04.692Z,11.10
2024-03-16T07:22:37.573Z,11.10
2024-03-16T07:24:11.286Z,11.20
2024-03-16T07:25:43.367Z,11.30
2024-03-16T07:27:16.339Z,11.30
2024-03-16T07:28:48.286Z,11.40
2024-03-16T07:30:21.224Z,11.40
2024-03-16T07:31:53.150Z,11.50
2024-03-16T07:33:26.037Z,11.50
2024-03-16T07:34:57.997Z,11.60
2024-03-16T07:36:30.958Z,11.70
2024-03-16T07:38:03.147Z,11.70
2024-03-16T07:39:36.260Z,11.80
2024-03-16T07:41:09.858Z,12.00
2024-03-16T07:42:42.784Z,12.00
2024-03-16T07:44:15.718Z,12.10
2024-03-16T07:45:50.094Z,12.20
2024-03-16T07:47:23.066Z,12.30
2024-03-16T07:48:57.950Z,12.40
2024-03-16T07:50:31.728Z,12.50
2024-03-16T07:52:05.122Z,12.60
2024-03-16T07:53:38.801Z,12.70
2024-03-16T07:55:11.858Z,13.00
2024-03-16T07:56:43.821Z,13.40
2024-03-16T07:58:16.826Z,13.90
2024-03-16T07:59:48.824Z,14.30
2024-03-16T08:01:24.458Z,14.60
2024-03-16T08:02:56.542Z,15.00
2024-03-16T08:04:29.520Z,15.30
2024-03-16T08:06:05.344Z,15.40
2024-03-16T08:07:37.262Z,15.60
2024-03-16T08:09:12.822Z,15.70
2024-03-16T08:10:44.760Z,15.70
2024-03-16T08:12:17.644Z,15.70
2024-03-16T08:13:50.439Z,15.60
2024-03-16T08:15:23.924Z,15.50
2024-03-16T08:16:56.376Z,15.40
2024-03-16T08:18:30.251Z,15.30
2024-03-16T08:20:03.963Z,15.20
2024-03-16T08:21:37.325Z,15.10
2024-03-16T08:23:09.239Z,14.90
2024-03-16T08:24:42.868Z,14.90
2024-03-16T08:26:14.936Z,14.80
2024-03-16T08:27:47.856Z,14.70
2024-03-16T08:29:19.820Z,14.60
2024-03-16T08:30:52.744Z,14.60
2024-03-16T08:32:24.868Z,14.50
2024-03-16T08:33:57.783Z,14.40
2024-03-16T08:35:31.182Z,14.40
2024-03-16T08:37:04.879Z,14.30
2024-03-16T08:38:37.371Z,14.30
2024-03-16T08:40:13.176Z,14.30
2024-03-16T08:41:46.630Z,14.30
2024-03-16T08:43:18.683Z,14.30
2024-03-16T08:44:51.638Z,14.40
2024-03-16T08:46:26.389Z,14.40
2024-03-16T08:48:00.748Z,14.40
2024-03-16T08:49:32.792Z,14.40
2024-03-16T08:51:06.024Z,14.40
2024-03-16T08:52:38.972Z,14.30
2024-03-16T08:54:12.160Z,14.30
2024-03-16T08:55:44.128Z,14.20
2024-03-16T08:57:17.060Z,14.10
2024-03-16T08:58:50.498Z,14.10
2024-03-16T09:00:23.380Z,14.10
2024-03-16T09:01:55.407Z,14.00
2024-03-16T09:03:28.406Z,14.00
2024-03-16T09:05:00.954Z,13.90
2024-03-16T09:06:34.749Z,13.90
2024-03-16T09:08:06.741Z,13.80
2024-03-16T09:09:39.633Z,13.80
2024-03-16T09:11:12.475Z,13.80
2024-03-16T09:12:47.949Z,13.80
2024-03-16T09:14:20.845Z,13.90
2024-03-16T09:15:52.881Z,13.90
2024-03-16T09:17:25.910Z,13.90
2024-03-16T09:18:58.131Z,13.90
2024-03-16T09:20:31.071Z,13.90
2024-03-16T09:22:03.982Z,13.90
2024-03-16T09:23:36.344Z,14.00
2024-03-16T09:25:10.180Z,14.00
2024-03-16T09:26:42.366Z,14.00
2024-03-16T09:28:15.556Z,14.00
2024-03-16T09:29:48.566Z,14.00
2024-03-16T09:31:20.932Z,14.00
2024-03-16T09:32:53.865Z,13.90
2024-03-16T09:34:25.821Z,13.90
2024-03-16T09:35:58.731Z,13.90
2024-03-16T09:37:30.752Z,13.90
2024-03-16T09:39:08.230Z,13.90
2024-03-16T09:40:41.050Z,13.90
2024-03-16T09:42:14.087Z,13.90
